Time;durP1;ratioP1;P1;durP2;ratioP2;P2;SDS_P1;SDS_P2;PMS_P1;PMS_P2;Temp;Humidity;BMP_temperature;BMP_pressure;BME280_temperature;BME280_humidity;BME280_pressure;Samples;Min_cycle;Max_cycle;Signal;HPM_P1;HPM_P2
2022/01/21 00:01:24;;;;;;;26.33;4.13;;;;;;;-145.76;100.00;65039.31;4907768;28;21211;-74
2022/01/21 00:03:49;;;;;;;35.78;7.10;;;;;;;-145.76;100.00;65039.31;4905753;28;20054;-74
2022/01/21 00:06:15;;;;;;;41.05;8.20;;;;;;;-145.76;100.00;65039.31;4923473;28;21006;-74
2022/01/21 00:08:42;;;;;;;46.38;10.35;;;;;;;-145.76;100.00;65039.31;4908348;28;20133;-74
2022/01/21 00:11:10;;;;;;;56.90;9.55;;;;;;;-145.76;100.00;65039.31;4922764;28;20360;-74
2022/01/21 00:13:36;;;;;;;32.92;4.28;;;;;;;-145.76;100.00;65039.31;4909324;28;20164;-74
2022/01/21 00:16:13;;;;;;;27.33;4.15;;;;;;;-145.76;100.00;65039.31;4907267;28;20102;-74
2022/01/21 00:18:43;;;;;;;28.13;4.45;;;;;;;-145.76;100.00;65039.31;4926416;28;20050;-74
2022/01/21 00:32:07;;;;;;;23.95;4.13;;;;;;;-145.76;100.00;65039.31;4912757;28;23648;-73
2022/01/21 00:34:32;;;;;;;23.88;3.53;;;;;;;-145.76;100.00;65039.31;4943977;28;20035;-73
2022/01/21 00:37:01;;;;;;;23.25;3.38;;;;;;;-145.76;100.00;65039.31;4924613;28;20038;-73
2022/01/21 00:39:29;;;;;;;15.27;2.40;;;;;;;-145.76;100.00;65039.31;4917804;28;20194;-72
2022/01/21 00:42:04;;;;;;;25.73;3.13;;;;;;;-145.76;100.00;65039.31;4926277;28;20034;-72
2022/01/21 00:44:29;;;;;;;12.75;1.92;;;;;;;-145.76;100.00;65039.31;4912048;28;20158;-74
2022/01/21 00:46:55;;;;;;;11.75;1.50;;;;;;;-145.76;100.00;65039.31;4924539;28;20041;-72
2022/01/21 00:49:20;;;;;;;9.50;1.60;;;;;;;-145.76;100.00;65039.31;4920225;28;20058;-72
2022/01/21 00:51:46;;;;;;;14.43;1.55;;;;;;;-145.76;100.00;65039.31;4914971;28;20101;-72
2022/01/21 00:54:11;;;;;;;12.15;1.20;;;;;;;-145.76;100.00;65039.31;4925103;28;20081;-72
2022/01/21 00:56:37;;;;;;;11.52;1.27;;;;;;;-145.76;100.00;65039.31;4908616;28;20055;-72
2022/01/21 00:59:02;;;;;;;9.20;1.52;;;;;;;-145.76;100.00;65039.31;4926774;28;20042;-73
2022/01/21 01:01:27;;;;;;;14.63;1.90;;;;;;;-145.76;100.00;65039.31;4922014;28;20058;-73
2022/01/21 01:03:53;;;;;;;12.02;1.38;;;;;;;-145.76;100.00;65039.31;4901257;28;20055;-72
2022/01/21 01:06:18;;;;;;;16.50;2.00;;;;;;;-145.76;100.00;65039.31;4911648;28;20476;-72
2022/01/21 01:08:44;;;;;;;12.65;2.08;;;;;;;-145.76;100.00;65039.31;4908658;28;20499;-73
2022/01/21 01:21:44;;;;;;;19.27;2.17;;;;;;;-145.76;100.00;65039.31;4915473;28;20392;-73
2022/01/21 01:29:23;;;;;;;16.00;1.75;;;;;;;-145.76;100.00;65039.31;4924361;28;20062;-72
2022/01/21 01:31:48;;;;;;;18.17;1.73;;;;;;;-145.76;100.00;65039.31;4915692;28;20051;-72
2022/01/21 01:34:14;;;;;;;13.98;2.22;;;;;;;-145.76;100.00;65039.31;4915578;28;20201;-72
2022/01/21 01:36:42;;;;;;;16.00;2.17;;;;;;;-145.76;100.00;65039.31;4927013;28;20038;-72
2022/01/21 01:39:29;;;;;;;20.30;2.35;;;;;;;-145.76;100.00;65039.31;4909122;28;20165;-72
2022/01/21 01:42:12;;;;;;;18.92;2.58;;;;;;;-145.76;100.00;65039.31;4926052;28;20043;-73
2022/01/21 01:50:28;;;;;;;48.72;12.95;;;;;;;-145.76;100.00;65039.31;4911019;28;20055;-73
2022/01/21 01:52:54;;;;;;;36.08;7.50;;;;;;;-145.76;100.00;65039.31;4924467;28;20129;-73
2022/01/21 01:55:20;;;;;;;20.98;3.25;;;;;;;-145.76;100.00;65039.31;4923643;28;20586;-73
2022/01/21 01:57:45;;;;;;;29.00;2.42;;;;;;;-145.76;100.00;65039.31;4912749;28;20053;-72
2022/01/21 02:00:11;;;;;;;21.42;2.33;;;;;;;-145.76;100.00;65039.31;4924497;28;20035;-74
2022/01/21 02:02:36;;;;;;;18.15;2.20;;;;;;;-145.76;100.00;65039.31;4891871;28;20055;-74
2022/01/21 02:05:02;;;;;;;20.08;2.95;;;;;;;-145.76;100.00;65039.31;4923684;28;20047;-73
2022/01/21 02:07:27;;;;;;;30.98;4.05;;;;;;;-145.76;100.00;65039.31;4923719;28;20444;-73
2022/01/21 02:09:53;;;;;;;25.83;4.03;;;;;;;-145.76;100.00;65039.31;4929553;28;20086;-74
2022/01/21 02:12:18;;;;;;;20.52;2.95;;;;;;;-145.76;100.00;65039.31;4924092;28;20531;-73
2022/01/21 02:14:49;;;;;;;23.33;2.35;;;;;;;-145.76;100.00;65039.31;4906927;28;20058;-73
2022/01/21 02:17:23;;;;;;;21.23;2.40;;;;;;;-145.76;100.00;65039.31;4924464;28;20057;-73
2022/01/21 02:22:38;;;;;;;23.27;3.35;;;;;;;-145.76;100.00;65039.31;4915703;28;20059;-72
2022/01/21 02:25:20;;;;;;;16.70;2.30;;;;;;;-145.76;100.00;65039.31;4926405;28;20042;-72
2022/01/21 02:27:50;;;;;;;15.52;2.38;;;;;;;-145.76;100.00;65039.31;4912170;28;20054;-72
2022/01/21 02:30:18;;;;;;;9.05;1.17;;;;;;;-145.76;100.00;65039.31;4907140;28;20660;-73
2022/01/21 02:32:52;;;;;;;12.45;1.60;;;;;;;-145.76;100.00;65039.31;4889990;28;20051;-72
2022/01/21 02:35:19;;;;;;;9.73;1.38;;;;;;;-145.76;100.00;65039.31;4926041;28;20403;-72
2022/01/21 02:37:45;;;;;;;28.40;7.22;;;;;;;-145.76;100.00;65039.31;4920360;28;20097;-73
2022/01/21 02:40:11;;;;;;;19.83;6.80;;;;;;;-145.76;100.00;65039.31;4914399;28;20061;-73
2022/01/21 02:42:37;;;;;;;18.42;5.28;;;;;;;-145.76;100.00;65039.31;4922192;28;20039;-72
2022/01/21 02:45:04;;;;;;;38.45;9.23;;;;;;;-145.76;100.00;65039.31;4908671;28;20143;-72
2022/01/21 02:47:30;;;;;;;53.70;14.88;;;;;;;-145.76;100.00;65039.31;4923855;28;20047;-72
2022/01/21 02:49:55;;;;;;;53.28;14.13;;;;;;;-145.76;100.00;65039.31;4917420;28;20131;-72
2022/01/21 02:52:24;;;;;;;34.15;8.60;;;;;;;-145.76;100.00;65039.31;4915219;28;20093;-73
2022/01/21 02:54:50;;;;;;;43.53;10.15;;;;;;;-145.76;100.00;65039.31;4926610;28;20172;-73
2022/01/21 02:57:15;;;;;;;35.08;9.25;;;;;;;-145.76;100.00;65039.31;4907466;28;20058;-73
2022/01/21 02:59:41;;;;;;;42.67;10.85;;;;;;;-145.76;100.00;65039.31;4925724;28;20039;-73
2022/01/21 03:02:06;;;;;;;22.85;5.85;;;;;;;-145.76;100.00;65039.31;4917703;28;20046;-73
2022/01/21 03:04:41;;;;;;;27.33;3.65;;;;;;;-145.76;100.00;65039.31;4914657;28;20079;-73
2022/01/21 03:07:07;;;;;;;23.30;6.65;;;;;;;-145.76;100.00;65039.31;4908062;28;20092;-73
2022/01/21 03:09:33;;;;;;;25.15;4.13;;;;;;;-145.76;100.00;65039.31;4908472;28;20063;-73
2022/01/21 03:11:58;;;;;;;15.30;3.53;;;;;;;-145.76;100.00;65039.31;4926251;28;20049;-73
2022/01/21 03:14:24;;;;;;;21.85;4.30;;;;;;;-145.76;100.00;65039.31;4917367;28;20063;-73
2022/01/21 03:16:49;;;;;;;23.98;2.40;;;;;;;-145.76;100.00;65039.31;4917163;28;20059;-72
2022/01/21 03:19:14;;;;;;;15.43;2.53;;;;;;;-145.76;100.00;65039.31;4927775;28;20134;-72
2022/01/21 03:21:40;;;;;;;23.33;2.40;;;;;;;-145.76;100.00;65039.31;4910553;28;20081;-72
2022/01/21 03:24:06;;;;;;;17.58;2.20;;;;;;;-145.76;100.00;65039.31;4924645;28;20118;-72
2022/01/21 03:26:31;;;;;;;26.08;2.80;;;;;;;-145.76;100.00;65039.31;4918142;28;20076;-73
2022/01/21 03:28:58;;;;;;;21.30;2.45;;;;;;;-145.76;100.00;65039.31;4914844;28;20128;-72
2022/01/21 03:31:24;;;;;;;18.77;2.47;;;;;;;-145.76;100.00;65039.31;4939650;28;22522;-72
2022/01/21 03:33:50;;;;;;;24.30;2.67;;;;;;;-145.76;100.00;65039.31;4891248;28;20078;-72
2022/01/21 03:36:16;;;;;;;16.77;2.75;;;;;;;-145.76;100.00;65039.31;4921970;28;20446;-72
2022/01/21 03:38:42;;;;;;;21.98;2.72;;;;;;;-145.76;100.00;65039.31;4932815;28;20035;-72
2022/01/21 03:41:07;;;;;;;21.85;2.17;;;;;;;-145.76;100.00;65039.31;4897240;28;20521;-72
2022/01/21 03:43:33;;;;;;;18.17;2.15;;;;;;;-145.76;100.00;65039.31;4921010;28;20038;-72
2022/01/21 03:45:59;;;;;;;21.73;2.72;;;;;;;-145.76;100.00;65039.31;4904321;28;20058;-72
2022/01/21 03:48:25;;;;;;;25.42;3.25;;;;;;;-145.76;100.00;65039.31;4920858;28;20046;-73
2022/01/21 03:50:50;;;;;;;19.92;2.60;;;;;;;-145.76;100.00;65039.31;4918575;28;23615;-73
2022/01/21 03:53:16;;;;;;;12.25;1.85;;;;;;;-145.76;100.00;65039.31;4899840;28;20129;-73
2022/01/21 03:55:42;;;;;;;15.85;2.03;;;;;;;-145.76;100.00;65039.31;4927800;28;20045;-72
2022/01/21 03:58:09;;;;;;;16.35;1.80;;;;;;;-145.76;100.00;65039.31;4911154;28;20071;-73
2022/01/21 04:00:45;;;;;;;17.65;1.95;;;;;;;-145.76;100.00;65039.31;4928666;28;20046;-72
2022/01/21 04:03:11;;;;;;;16.08;1.98;;;;;;;-145.76;100.00;65039.31;4912367;28;20081;-73
2022/01/21 04:05:37;;;;;;;16.25;2.03;;;;;;;-145.76;100.00;65039.31;4910390;28;20035;-73
2022/01/21 04:08:04;;;;;;;12.73;1.92;;;;;;;-145.76;100.00;65039.31;4927234;28;20034;-73
2022/01/21 04:10:29;;;;;;;23.83;2.60;;;;;;;-145.76;100.00;65039.31;4915565;28;20055;-73
2022/01/21 04:12:54;;;;;;;23.25;2.70;;;;;;;-145.76;100.00;65039.31;4927867;28;20042;-73
2022/01/21 04:15:20;;;;;;;21.80;2.63;;;;;;;-145.76;100.00;65039.31;4909921;28;20046;-73
2022/01/21 04:17:45;;;;;;;12.75;1.95;;;;;;;-145.76;100.00;65039.31;4925522;28;20065;-73
2022/01/21 04:20:12;;;;;;;21.90;4.93;;;;;;;-145.76;100.00;65039.31;4928630;28;20046;-73
2022/01/21 04:22:38;;;;;;;22.17;4.72;;;;;;;-145.76;100.00;65039.31;4918956;28;20071;-73
2022/01/21 04:25:05;;;;;;;16.55;2.13;;;;;;;-145.76;100.00;65039.31;4938578;28;20045;-73
2022/01/21 04:27:30;;;;;;;31.95;4.32;;;;;;;-145.76;100.00;65039.31;4906410;28;20133;-73
2022/01/21 04:29:56;;;;;;;34.47;6.00;;;;;;;-145.76;100.00;65039.31;4940673;28;20043;-73
2022/01/21 04:32:21;;;;;;;40.90;8.95;;;;;;;-145.76;100.00;65039.31;4932415;28;20145;-72
2022/01/21 04:34:47;;;;;;;46.90;11.75;;;;;;;-145.76;100.00;65039.31;4894099;28;20104;-73
2022/01/21 04:37:14;;;;;;;45.03;12.82;;;;;;;-145.76;100.00;65039.31;4927236;28;20049;-73
2022/01/21 04:39:48;;;;;;;40.03;10.63;;;;;;;-145.76;100.00;65039.31;4882520;28;20086;-73
2022/01/21 04:47:32;;;;;;;22.92;4.25;;;;;;;-145.76;100.00;65039.31;4918077;28;20468;-73
2022/01/21 04:49:58;;;;;;;16.25;2.45;;;;;;;-145.76;100.00;65039.31;4925409;28;20039;-73
2022/01/21 04:52:24;;;;;;;17.83;2.65;;;;;;;-145.76;100.00;65039.31;4910907;28;20105;-73
2022/01/21 04:54:50;;;;;;;14.07;1.85;;;;;;;-145.76;100.00;65039.31;4928553;28;20086;-73
2022/01/21 04:57:16;;;;;;;17.55;1.77;;;;;;;-145.76;100.00;65039.31;4924000;28;20058;-73
2022/01/21 04:59:42;;;;;;;9.10;1.92;;;;;;;-145.76;100.00;65039.31;4917413;28;20054;-73
2022/01/21 05:02:07;;;;;;;19.98;2.55;;;;;;;-145.76;100.00;65039.31;4925374;28;20121;-73
2022/01/21 05:04:33;;;;;;;18.98;1.80;;;;;;;-145.76;100.00;65039.31;4908390;28;20066;-73
2022/01/21 05:07:01;;;;;;;20.60;2.00;;;;;;;-145.76;100.00;65039.31;4926990;28;20031;-73
2022/01/21 05:09:31;;;;;;;19.13;2.45;;;;;;;-145.76;100.00;65039.31;4922485;28;20062;-73
2022/01/21 05:11:58;;;;;;;21.98;2.13;;;;;;;-145.76;100.00;65039.31;4917984;28;20063;-73
2022/01/21 05:14:35;;;;;;;17.63;1.95;;;;;;;-145.76;100.00;65039.31;4926210;28;20031;-73
2022/01/21 05:17:04;;;;;;;24.77;2.35;;;;;;;-145.76;100.00;65039.31;4910699;28;20538;-73
2022/01/21 05:19:29;;;;;;;30.48;3.03;;;;;;;-145.76;100.00;65039.31;4926924;28;20055;-73
2022/01/21 05:21:55;;;;;;;19.90;2.20;;;;;;;-145.76;100.00;65039.31;4911949;28;20058;-73
2022/01/21 05:24:21;;;;;;;23.45;2.63;;;;;;;-145.76;100.00;65039.31;4908992;28;20101;-73
2022/01/21 05:26:56;;;;;;;15.00;2.08;;;;;;;-145.76;100.00;65039.31;4924323;28;20027;-73
2022/01/21 05:29:29;;;;;;;19.05;2.60;;;;;;;-145.76;100.00;65039.31;4909456;28;20051;-73
2022/01/21 05:31:55;;;;;;;17.17;2.90;;;;;;;-145.76;100.00;65039.31;4925658;28;20455;-73
2022/01/21 05:34:21;;;;;;;23.30;3.70;;;;;;;-145.76;100.00;65039.31;4908265;28;20050;-73
2022/01/21 05:36:47;;;;;;;24.88;4.15;;;;;;;-145.76;100.00;65039.31;4926483;28;20033;-73
2022/01/21 05:39:14;;;;;;;48.67;13.18;;;;;;;-145.76;100.00;65039.31;4919082;28;20038;-73
2022/01/21 05:41:44;;;;;;;34.92;10.75;;;;;;;-145.76;100.00;65039.31;4917484;28;20051;-73
2022/01/21 05:44:17;;;;;;;37.60;7.47;;;;;;;-145.76;100.00;65039.31;4926373;28;20042;-73
2022/01/21 05:46:55;;;;;;;39.28;13.77;;;;;;;-145.76;100.00;65039.31;4910314;28;20065;-73
2022/01/21 05:49:21;;;;;;;34.22;8.25;;;;;;;-145.76;100.00;65039.31;4926297;28;20049;-73
2022/01/21 05:51:47;;;;;;;46.63;12.88;;;;;;;-145.76;100.00;65039.31;4918310;28;20044;-73
2022/01/21 05:54:13;;;;;;;47.25;11.40;;;;;;;-145.76;100.00;65039.31;4915204;28;20148;-73
2022/01/21 05:56:39;;;;;;;59.28;17.15;;;;;;;-145.76;100.00;65039.31;4923981;28;20078;-73
2022/01/21 05:59:06;;;;;;;76.38;21.00;;;;;;;-145.76;100.00;65039.31;4910303;28;20082;-73
2022/01/21 06:01:32;;;;;;;98.05;26.60;;;;;;;-145.76;100.00;65039.31;4921810;28;20045;-73
2022/01/21 06:03:58;;;;;;;74.75;25.45;;;;;;;-145.76;100.00;65039.31;4906613;28;20061;-73
2022/01/21 06:06:23;;;;;;;86.32;27.60;;;;;;;-145.76;100.00;65039.31;4940676;28;20035;-73
2022/01/21 06:08:48;;;;;;;63.40;16.52;;;;;;;-145.76;100.00;65039.31;4923460;28;21336;-73
2022/01/21 06:11:14;;;;;;;23.50;6.25;;;;;;;-145.76;100.00;65039.31;4907522;28;20149;-73
2022/01/21 06:13:39;;;;;;;14.35;2.63;;;;;;;-145.76;100.00;65039.31;4924056;28;20054;-73
2022/01/21 06:16:05;;;;;;;19.75;2.80;;;;;;;-145.76;100.00;65039.31;4908748;28;20047;-73
2022/01/21 06:18:30;;;;;;;15.65;1.92;;;;;;;-145.76;100.00;65039.31;4909160;28;20117;-73
2022/01/21 06:20:56;;;;;;;16.02;2.30;;;;;;;-145.76;100.00;65039.31;4906945;28;20059;-72
2022/01/21 06:23:22;;;;;;;24.83;3.28;;;;;;;-145.76;100.00;65039.31;4910248;28;21019;-72
2022/01/21 06:25:47;;;;;;;22.52;2.88;;;;;;;-145.76;100.00;65039.31;4924575;28;20081;-72
2022/01/21 06:28:13;;;;;;;29.27;8.10;;;;;;;-145.76;100.00;65039.31;4891771;28;20799;-72
2022/01/21 06:30:39;;;;;;;48.35;12.82;;;;;;;-145.76;100.00;65039.31;4923624;28;20351;-73
2022/01/21 06:33:05;;;;;;;68.25;17.65;;;;;;;-145.76;100.00;65039.31;4925088;28;20062;-72
2022/01/21 06:35:31;;;;;;;54.20;12.25;;;;;;;-145.76;100.00;65039.31;4906814;28;20051;-72
2022/01/21 06:37:56;;;;;;;27.08;7.22;;;;;;;-145.76;100.00;65039.31;4924501;28;20145;-72
2022/01/21 06:40:22;;;;;;;57.90;15.40;;;;;;;-145.76;100.00;65039.31;4892573;28;20055;-72
2022/01/21 06:42:48;;;;;;;57.05;15.02;;;;;;;-145.76;100.00;65039.31;4922154;28;20038;-72
2022/01/21 06:45:14;;;;;;;74.60;22.65;;;;;;;-145.76;100.00;65039.31;4920836;28;20043;-72
2022/01/21 06:47:39;;;;;;;58.53;16.08;;;;;;;-145.76;100.00;65039.31;4894810;28;20146;-74
2022/01/21 06:50:05;;;;;;;42.42;10.15;;;;;;;-145.76;100.00;65039.31;4924127;28;20053;-74
2022/01/21 06:52:31;;;;;;;44.35;7.82;;;;;;;-145.76;100.00;65039.31;4892813;28;20137;-72
2022/01/21 06:54:58;;;;;;;24.08;3.33;;;;;;;-145.76;100.00;65039.31;4925842;28;20504;-74
2022/01/21 06:57:24;;;;;;;24.38;3.33;;;;;;;-145.76;100.00;65039.31;4919468;28;20125;-74
2022/01/21 06:59:49;;;;;;;16.85;2.90;;;;;;;-145.76;100.00;65039.31;4915079;28;20578;-74
2022/01/21 07:02:18;;;;;;;28.67;4.05;;;;;;;-145.76;100.00;65039.31;4905926;28;20570;-73
2022/01/21 07:04:45;;;;;;;17.83;3.65;;;;;;;-145.76;100.00;65039.31;4891270;28;20118;-73
2022/01/21 07:07:10;;;;;;;22.05;3.00;;;;;;;-145.76;100.00;65039.31;4920173;28;20470;-73
2022/01/21 07:09:36;;;;;;;29.00;5.47;;;;;;;-145.76;100.00;65039.31;4901295;28;20055;-74
2022/01/21 07:12:01;;;;;;;40.13;9.63;;;;;;;-145.76;100.00;65039.31;4912319;28;20047;-73
2022/01/21 07:14:27;;;;;;;52.85;19.33;;;;;;;-145.76;100.00;65039.31;4921338;28;20031;-73
2022/01/21 07:16:53;;;;;;;26.67;7.53;;;;;;;-145.76;100.00;65039.31;4907458;28;20081;-74
2022/01/21 07:19:18;;;;;;;46.15;14.25;;;;;;;-145.76;100.00;65039.31;4923553;28;20034;-74
2022/01/21 07:21:43;;;;;;;60.75;15.00;;;;;;;-145.76;100.00;65039.31;4898775;28;20177;-74
2022/01/21 07:24:09;;;;;;;56.60;19.63;;;;;;;-145.76;100.00;65039.31;4916153;28;20050;-74
2022/01/21 07:26:34;;;;;;;44.95;13.48;;;;;;;-145.76;100.00;65039.31;4924683;28;20042;-74
2022/01/21 07:29:01;;;;;;;54.45;14.32;;;;;;;-145.76;100.00;65039.31;4925941;28;20154;-74
2022/01/21 07:31:26;;;;;;;37.55;9.30;;;;;;;-145.76;100.00;65039.31;4924593;28;20165;-74
2022/01/21 07:33:52;;;;;;;39.38;10.45;;;;;;;-145.76;100.00;65039.31;4918079;28;20611;-74
2022/01/21 07:36:17;;;;;;;39.60;6.60;;;;;;;-145.76;100.00;65039.31;4916446;28;20138;-74
2022/01/21 07:38:43;;;;;;;21.15;3.42;;;;;;;-145.76;100.00;65039.31;4926158;28;20088;-71
2022/01/21 07:41:08;;;;;;;27.48;4.15;;;;;;;-145.76;100.00;65039.31;4911728;28;20141;-72
2022/01/21 07:43:34;;;;;;;24.08;4.20;;;;;;;-145.76;100.00;65039.31;4926126;28;20050;-72
2022/01/21 07:45:59;;;;;;;25.90;4.07;;;;;;;-145.76;100.00;65039.31;4922939;28;20538;-72
2022/01/21 07:48:25;;;;;;;24.20;3.65;;;;;;;-145.76;100.00;65039.31;4919260;28;20446;-72
2022/01/21 07:50:50;;;;;;;25.30;3.00;;;;;;;-145.76;100.00;65039.31;4927532;28;20035;-72
2022/01/21 07:53:16;;;;;;;18.25;3.03;;;;;;;-145.76;100.00;65039.31;4916479;28;20725;-73
2022/01/21 07:55:44;;;;;;;23.13;3.20;;;;;;;-145.76;100.00;65039.31;4926814;28;20066;-72
2022/01/21 07:58:10;;;;;;;22.38;2.50;;;;;;;-145.76;100.00;65039.31;4924609;28;20051;-72
2022/01/21 08:00:35;;;;;;;20.13;2.38;;;;;;;-145.76;100.00;65039.31;4918319;28;20059;-72
2022/01/21 08:03:02;;;;;;;10.85;2.13;;;;;;;-145.76;100.00;65039.31;4927422;28;20035;-72
2022/01/21 08:05:31;;;;;;;12.63;1.73;;;;;;;-145.76;100.00;65039.31;4908450;28;20503;-72
2022/01/21 08:07:56;;;;;;;19.45;2.60;;;;;;;-145.76;100.00;65039.31;4923295;28;20035;-75
2022/01/21 08:10:22;;;;;;;21.13;2.30;;;;;;;-145.76;100.00;65039.31;4919962;28;20058;-75
2022/01/21 08:12:47;;;;;;;21.20;2.83;;;;;;;-145.76;100.00;65039.31;4908547;28;20050;-75
2022/01/21 08:15:13;;;;;;;18.50;2.55;;;;;;;-145.76;100.00;65039.31;4909105;28;20054;-77
2022/01/21 08:17:38;;;;;;;28.45;2.70;;;;;;;-145.76;100.00;65039.31;4912864;28;20086;-77
2022/01/21 08:20:04;;;;;;;25.75;3.75;;;;;;;-145.76;100.00;65039.31;4923524;28;24212;-75
2022/01/21 08:22:29;;;;;;;21.23;2.92;;;;;;;-145.76;100.00;65039.31;4910984;28;20047;-75
2022/01/21 08:24:55;;;;;;;19.13;3.00;;;;;;;-145.76;100.00;65039.31;4924450;28;20042;-75
2022/01/21 08:27:21;;;;;;;20.25;2.53;;;;;;;-145.76;100.00;65039.31;4923671;28;20120;-75
2022/01/21 08:29:46;;;;;;;25.42;3.63;;;;;;;-145.76;100.00;65039.31;4912915;28;20061;-75
2022/01/21 08:32:12;;;;;;;23.63;3.17;;;;;;;-145.76;100.00;65039.31;4922977;28;20051;-75
2022/01/21 08:34:38;;;;;;;32.03;3.38;;;;;;;-145.76;100.00;65039.31;4909051;28;20098;-75
2022/01/21 08:37:04;;;;;;;22.77;3.20;;;;;;;-145.76;100.00;65039.31;4924753;28;20038;-76
2022/01/21 08:39:30;;;;;;;22.60;2.80;;;;;;;-145.76;100.00;65039.31;4925668;28;20433;-75
2022/01/21 08:41:55;;;;;;;21.08;2.85;;;;;;;-145.76;100.00;65039.31;4914779;28;20091;-76
2022/01/21 08:44:21;;;;;;;24.80;3.75;;;;;;;-145.76;100.00;65039.31;4928338;28;20099;-76
2022/01/21 08:46:46;;;;;;;21.60;3.17;;;;;;;-145.76;100.00;65039.31;4915244;28;20051;-75
2022/01/21 08:49:12;;;;;;;30.55;3.95;;;;;;;-145.76;100.00;65039.31;4924162;28;20058;-75
2022/01/21 08:51:50;;;;;;;24.80;3.15;;;;;;;-145.76;100.00;65039.31;4928154;28;20047;-76
2022/01/21 08:54:16;;;;;;;19.63;3.08;;;;;;;-145.76;100.00;65039.31;4915500;28;20070;-76
2022/01/21 08:56:43;;;;;;;24.02;3.20;;;;;;;-145.76;100.00;65039.31;4945019;28;20035;-76
2022/01/21 08:59:08;;;;;;;26.02;4.15;;;;;;;-145.76;100.00;65039.31;4915994;28;20130;-76
2022/01/21 09:01:34;;;;;;;21.42;3.05;;;;;;;-145.76;100.00;65039.31;4928839;28;20039;-76
2022/01/21 09:03:59;;;;;;;27.52;4.57;;;;;;;-145.76;100.00;65039.31;4928582;28;20054;-75
2022/01/21 09:06:28;;;;;;;21.10;3.33;;;;;;;-145.76;100.00;65039.31;4910935;28;20101;-77
2022/01/21 09:08:55;;;;;;;24.58;3.72;;;;;;;-145.76;100.00;65039.31;4929761;28;20507;-76
2022/01/21 09:11:20;;;;;;;21.60;3.53;;;;;;;-145.76;100.00;65039.31;4912893;28;20192;-76
2022/01/21 09:13:46;;;;;;;24.85;3.88;;;;;;;-145.76;100.00;65039.31;4930634;28;20027;-76
2022/01/21 09:16:12;;;;;;;28.17;4.07;;;;;;;-145.76;100.00;65039.31;4923605;28;20494;-76
2022/01/21 09:21:21;;;;;;;15.15;3.13;;;;;;;-145.76;100.00;65039.31;4931385;28;20115;-74
2022/01/21 09:23:49;;;;;;;23.63;3.72;;;;;;;-145.76;100.00;65039.31;4918705;28;20105;-74
2022/01/21 09:26:16;;;;;;;27.55;4.45;;;;;;;-145.76;100.00;65039.31;4930088;28;20031;-74
2022/01/21 09:28:42;;;;;;;28.25;3.10;;;;;;;-145.76;100.00;65039.31;4924544;28;20047;-74
2022/01/21 09:31:08;;;;;;;21.48;2.85;;;;;;;-145.76;100.00;65039.31;4925176;28;20055;-74
2022/01/21 09:33:33;;;;;;;26.45;3.30;;;;;;;-145.76;100.00;65039.31;4937053;28;20193;-75
2022/01/21 09:35:59;;;;;;;21.55;3.40;;;;;;;-145.76;100.00;65039.31;4912709;28;20050;-75
2022/01/21 09:38:25;;;;;;;22.95;4.07;;;;;;;-145.76;100.00;65039.31;4939531;28;20046;-75
2022/01/21 09:40:51;;;;;;;27.10;3.80;;;;;;;-145.76;100.00;65039.31;4932188;28;20054;-76
2022/01/21 09:43:18;;;;;;;27.98;3.78;;;;;;;-145.76;100.00;65039.31;4950231;28;20050;-76
2022/01/21 09:45:51;;;;;;;26.45;3.58;;;;;;;-145.76;100.00;65039.31;4953755;28;20082;-76
2022/01/21 09:48:22;;;;;;;29.35;4.70;;;;;;;-145.76;100.00;65039.31;4934630;28;20591;-76
2022/01/21 09:50:51;;;;;;;30.58;3.50;;;;;;;-145.76;100.00;65039.31;4951891;28;20042;-75
2022/01/21 09:53:19;;;;;;;34.78;3.88;;;;;;;-145.76;100.00;65039.31;4938022;28;20042;-76
2022/01/21 09:55:44;;;;;;;29.73;4.50;;;;;;;-145.76;100.00;65039.31;4955051;28;20125;-77
2022/01/21 09:58:10;;;;;;;25.95;3.42;;;;;;;-145.76;100.00;65039.31;4954562;28;20109;-77
2022/01/21 10:00:35;;;;;;;30.73;4.82;;;;;;;-145.76;100.00;65039.31;4942067;28;20435;-77
2022/01/21 10:03:03;;;;;;;35.70;6.35;;;;;;;-145.76;100.00;65039.31;4959406;28;20031;-77
2022/01/21 10:05:30;;;;;;;45.78;6.80;;;;;;;-145.76;100.00;65039.31;4944686;28;20054;-77
2022/01/21 10:07:56;;;;;;;34.35;4.57;;;;;;;-145.76;100.00;65039.31;4978629;28;20049;-78
2022/01/21 10:10:21;;;;;;;41.22;4.72;;;;;;;-145.76;100.00;65039.31;4963176;28;20052;-79
2022/01/21 10:12:48;;;;;;;32.55;4.18;;;;;;;-145.76;100.00;65039.31;4961379;28;20047;-78
2022/01/21 10:15:14;;;;;;;26.92;4.53;;;;;;;-145.76;100.00;65039.31;4980882;28;20034;-79
2022/01/21 10:17:57;;;;;;;31.92;4.80;;;;;;;-145.76;100.00;65039.31;4943473;28;20114;-78
2022/01/21 10:20:23;;;;;;;41.50;4.88;;;;;;;-145.76;100.00;65039.31;4971090;28;20252;-79
2022/01/21 10:23:07;;;;;;;31.35;5.30;;;;;;;-145.76;100.00;65039.31;4946485;28;20055;-79
2022/01/21 10:25:34;;;;;;;31.17;4.70;;;;;;;-145.76;100.00;65039.31;4943192;28;20778;-78
2022/01/21 10:28:17;;;;;;;31.27;5.55;;;;;;;-145.76;100.00;65039.31;4944614;28;20042;-75
2022/01/21 10:30:44;;;;;;;37.92;6.53;;;;;;;-145.76;100.00;65039.31;4911382;28;20443;-77
2022/01/21 10:33:26;;;;;;;38.15;8.00;;;;;;;-145.76;100.00;65039.31;4925060;28;20041;-77
2022/01/21 10:36:07;;;;;;;28.67;6.65;;;;;;;-145.76;100.00;65039.31;4924693;28;20066;-77
2022/01/21 10:38:39;;;;;;;36.22;6.85;;;;;;;-145.76;100.00;65039.31;4941761;28;20084;-75
2022/01/21 10:41:08;;;;;;;40.38;5.47;;;;;;;-145.76;100.00;65039.31;4953894;28;20051;-75
2022/01/21 10:43:34;;;;;;;26.35;3.55;;;;;;;-145.76;100.00;65039.31;4918777;28;20081;-74
2022/01/21 10:46:00;;;;;;;40.58;7.30;;;;;;;-145.76;100.00;65039.31;4952252;28;20086;-77
2022/01/21 10:48:30;;;;;;;29.52;5.95;;;;;;;-145.76;100.00;65039.31;4932199;28;20050;-77
2022/01/21 10:51:20;;;;;;;35.05;8.95;;;;;;;-145.76;100.00;65039.31;4930270;28;20169;-77
2022/01/21 10:53:46;;;;;;;48.20;6.95;;;;;;;-145.76;100.00;65039.31;4908176;28;20119;-76
2022/01/21 10:56:17;;;;;;;27.95;6.30;;;;;;;-145.76;100.00;65039.31;4940326;28;20127;-75
2022/01/21 10:58:44;;;;;;;32.70;4.90;;;;;;;-145.76;100.00;65039.31;4923647;28;20026;-75
2022/01/21 11:01:16;;;;;;;23.15;4.70;;;;;;;-145.76;100.00;65039.31;4916051;28;20085;-74
2022/01/21 11:03:56;;;;;;;27.90;5.05;;;;;;;-145.76;100.00;65039.31;4927285;28;20030;-74
2022/01/21 11:06:25;;;;;;;26.75;3.90;;;;;;;-145.76;100.00;65039.31;4923911;28;20039;-74
2022/01/21 11:08:51;;;;;;;32.58;5.50;;;;;;;-145.76;100.00;65039.31;4923219;28;20043;-74
2022/01/21 11:11:21;;;;;;;28.52;4.30;;;;;;;-145.76;100.00;65039.31;4898212;28;23903;-74
2022/01/21 11:13:47;;;;;;;26.52;3.65;;;;;;;-145.76;100.00;65039.31;4912020;28;20046;-73
2022/01/21 11:16:16;;;;;;;23.60;4.28;;;;;;;-145.76;100.00;65039.31;4905557;28;20039;-73
2022/01/21 11:18:50;;;;;;;26.38;5.13;;;;;;;-145.76;100.00;65039.31;4908278;28;20054;-73
2022/01/21 11:21:16;;;;;;;31.33;8.52;;;;;;;-145.76;100.00;65039.31;4921850;28;20107;-73
2022/01/21 11:23:42;;;;;;;29.60;4.20;;;;;;;-145.76;100.00;65039.31;4909419;28;20070;-72
2022/01/21 11:26:12;;;;;;;22.52;4.13;;;;;;;-145.76;100.00;65039.31;4923659;28;20035;-76
2022/01/21 11:28:50;;;;;;;21.48;4.22;;;;;;;-145.76;100.00;65039.31;4923571;28;20045;-73
2022/01/21 11:31:18;;;;;;;24.15;3.13;;;;;;;-145.76;100.00;65039.31;4908457;28;20054;-73
2022/01/21 11:33:43;;;;;;;20.30;3.83;;;;;;;-145.76;100.00;65039.31;4924880;28;20164;-74
2022/01/21 11:36:08;;;;;;;26.58;5.20;;;;;;;-145.76;100.00;65039.31;4908775;28;20054;-74
2022/01/21 11:38:37;;;;;;;21.10;5.05;;;;;;;-145.76;100.00;65039.31;4923572;28;20035;-75
2022/01/21 11:41:04;;;;;;;30.75;5.28;;;;;;;-145.76;100.00;65039.31;4893161;28;20038;-72
2022/01/21 11:43:33;;;;;;;28.00;5.95;;;;;;;-145.76;100.00;65039.31;4909841;28;20055;-72
2022/01/21 11:48:50;;;;;;;33.95;6.00;;;;;;;-145.76;100.00;65039.31;4906426;28;20058;-76